createdAt,value
2023-05-18T00:00:39.340Z,60.75
2023-05-18T00:03:21.538Z,60.24
2023-05-18T00:05:50.997Z,60.70
2023-05-18T00:08:20.614Z,60.77
2023-05-18T00:10:50.172Z,60.78
2023-05-18T00:13:20.598Z,61.44
2023-05-18T00:15:49.904Z,61.49
2023-05-18T00:18:24.147Z,60.07
2023-05-18T00:20:59.024Z,60.32
2023-05-18T00:23:30.029Z,60.99
2023-05-18T00:25:59.494Z,60.63
2023-05-18T00:28:30.063Z,58.38
2023-05-18T00:31:00.478Z,59.77
2023-05-18T00:33:29.667Z,59.40
2023-05-18T00:36:05.335Z,60.06
2023-05-18T00:38:59.340Z,59.39
2023-05-18T00:41:28.957Z,59.71
2023-05-18T00:43:59.761Z,59.53
2023-05-18T00:46:29.401Z,60.16
2023-05-18T00:48:59.006Z,59.28
2023-05-18T00:51:28.106Z,59.70
2023-05-18T00:53:57.740Z,58.99
2023-05-18T00:56:26.956Z,59.22
2023-05-18T00:58:57.614Z,58.37
2023-05-18T01:01:29.351Z,58.93
2023-05-18T01:04:02.367Z,59.15
2023-05-18T01:06:36.161Z,60.32
2023-05-18T01:09:07.260Z,59.91
2023-05-18T01:11:40.503Z,59.98
2023-05-18T01:14:15.390Z,61.21
2023-05-18T01:16:49.876Z,61.71
2023-05-18T01:19:36.107Z,59.91
2023-05-18T01:22:09.458Z,61.28
2023-05-18T01:24:42.844Z,61.47
2023-05-18T01:27:16.423Z,60.19
2023-05-18T01:29:47.153Z,59.17
2023-05-18T01:32:19.100Z,59.79
2023-05-18T01:34:48.450Z,60.15
2023-05-18T01:37:17.956Z,58.19
2023-05-18T01:39:46.861Z,58.13
2023-05-18T01:42:22.429Z,59.54
2023-05-18T01:44:52.963Z,58.75
2023-05-18T01:47:22.142Z,57.41
2023-05-18T01:49:55.763Z,57.74
2023-05-18T01:52:27.674Z,58.76
2023-05-18T01:54:58.757Z,58.06
2023-05-18T01:57:32.513Z,57.74
2023-05-18T02:00:01.918Z,57.35
2023-05-18T02:02:31.268Z,59.94
2023-05-18T02:05:00.307Z,58.69
2023-05-18T02:07:30.794Z,60.88
2023-05-18T02:10:00.974Z,60.18
2023-05-18T02:12:31.600Z,60.32
2023-05-18T02:15:05.351Z,59.73
2023-05-18T02:17:36.118Z,59.75
2023-05-18T02:20:07.183Z,59.99
2023-05-18T02:22:36.897Z,59.91
2023-05-18T02:25:07.328Z,59.46
2023-05-18T02:27:37.999Z,60.25
2023-05-18T02:33:55.994Z,58.75
2023-05-18T02:36:25.018Z,59.19
2023-05-18T02:38:54.085Z,60.49
2023-05-18T02:41:24.075Z,59.29
2023-05-18T02:43:54.697Z,59.72
2023-05-18T02:46:23.713Z,59.46
2023-05-18T02:48:52.974Z,57.98
2023-05-18T02:51:21.965Z,59.75
2023-05-18T02:53:51.685Z,59.33
2023-05-18T02:56:21.201Z,57.62
2023-05-18T02:59:01.449Z,59.57
2023-05-18T03:01:37.040Z,59.37
2023-05-18T03:04:06.319Z,59.32
2023-05-18T03:06:38.478Z,58.70
2023-05-18T03:09:07.647Z,59.41
2023-05-18T03:11:43.852Z,59.65
2023-05-18T03:14:14.468Z,59.67
2023-05-18T03:16:43.456Z,58.48
2023-05-18T03:19:16.350Z,59.54
2023-05-18T03:21:45.864Z,60.56
2023-05-18T03:24:16.263Z,59.68
2023-05-18T03:26:49.381Z,59.04
2023-05-18T03:29:19.962Z,59.84
2023-05-18T03:31:49.546Z,60.96
2023-05-18T03:34:18.948Z,61.68
2023-05-18T03:36:48.095Z,60.28
2023-05-18T03:39:17.418Z,61.00
2023-05-18T03:41:46.456Z,60.43
2023-05-18T03:44:16.232Z,61.47
2023-05-18T03:46:46.779Z,60.92
2023-05-18T03:49:16.294Z,60.55
2023-05-18T03:51:45.568Z,61.49
2023-05-18T03:54:14.817Z,62.43
2023-05-18T03:56:43.600Z,62.28
2023-05-18T03:59:12.717Z,62.69
2023-05-18T04:01:42.460Z,60.00
2023-05-18T04:04:18.485Z,62.27
2023-05-18T04:06:49.405Z,62.13
2023-05-18T04:09:19.135Z,62.46
2023-05-18T04:11:48.050Z,62.40
2023-05-18T04:14:17.166Z,62.20
2023-05-18T04:16:46.966Z,63.29
2023-05-18T04:19:19.156Z,62.72
2023-05-18T04:21:49.117Z,63.68
2023-05-18T04:24:21.450Z,64.10
2023-05-18T04:26:50.522Z,64.76
2023-05-18T04:29:19.797Z,64.23
2023-05-18T04:31:48.937Z,64.10
2023-05-18T04:34:19.485Z,64.03
2023-05-18T04:36:49.219Z,63.62
2023-05-18T04:39:18.482Z,63.92
2023-05-18T04:41:47.525Z,64.22
2023-05-18T04:44:18.309Z,64.05
2023-05-18T04:46:47.518Z,64.22
2023-05-18T04:49:16.992Z,63.78
2023-05-18T04:51:47.320Z,65.03
2023-05-18T04:54:16.799Z,63.49
2023-05-18T04:56:47.330Z,64.45
2023-05-18T04:59:16.571Z,64.57
2023-05-18T05:01:46.215Z,64.14
2023-05-18T05:04:15.735Z,64.14
2023-05-18T05:06:44.714Z,64.00
2023-05-18T05:09:15.377Z,63.77
2023-05-18T05:11:44.257Z,62.80
2023-05-18T05:14:13.662Z,63.28
2023-05-18T05:16:44.101Z,63.14
2023-05-18T05:19:14.112Z,62.39
2023-05-18T05:21:43.187Z,63.20
2023-05-18T05:24:12.394Z,62.75
2023-05-18T05:26:42.855Z,62.92
2023-05-18T05:29:12.082Z,62.64
2023-05-18T05:31:41.441Z,62.41
2023-05-18T05:34:12.062Z,62.29
2023-05-18T05:36:41.284Z,61.99
2023-05-18T05:39:10.534Z,61.91
2023-05-18T05:41:40.127Z,61.11
2023-05-18T05:44:10.939Z,61.23
2023-05-18T05:46:39.911Z,61.30
2023-05-18T05:49:11.103Z,61.41
2023-05-18T05:51:40.087Z,60.66
2023-05-18T05:54:10.864Z,60.96
2023-05-18T05:56:40.068Z,60.68
2023-05-18T05:59:10.783Z,60.42
2023-05-18T06:01:39.986Z,59.71
2023-05-18T06:04:10.946Z,59.46
2023-05-18T06:06:40.214Z,59.30
2023-05-18T06:09:10.703Z,59.15
2023-05-18T06:11:39.872Z,58.31
2023-05-18T06:14:10.427Z,58.10
2023-05-18T06:16:39.609Z,58.22
2023-05-18T06:19:08.920Z,56.69
2023-05-18T06:21:37.990Z,56.66
2023-05-18T06:24:07.719Z,56.04
2023-05-18T06:26:55.126Z,56.92
2023-05-18T06:29:30.703Z,57.17
2023-05-18T06:32:09.249Z,56.40
2023-05-18T06:34:42.484Z,56.19
2023-05-18T06:37:11.780Z,56.55
2023-05-18T06:39:40.905Z,56.03
2023-05-18T06:42:10.626Z,56.44
2023-05-18T06:44:52.115Z,56.31
2023-05-18T06:47:24.321Z,54.54
2023-05-18T06:49:53.770Z,54.32
2023-05-18T06:52:23.550Z,53.93
2023-05-18T06:54:54.222Z,53.12
2023-05-18T06:57:23.007Z,52.57
2023-05-18T06:59:54.268Z,53.50
2023-05-18T07:02:24.165Z,51.55
2023-05-18T07:04:53.654Z,52.11
2023-05-18T07:07:22.594Z,53.35
2023-05-18T07:09:51.621Z,52.47
2023-05-18T07:12:20.457Z,51.86
2023-05-18T07:14:49.663Z,52.57
2023-05-18T07:17:19.892Z,50.63
2023-05-18T07:19:49.189Z,51.08
2023-05-18T07:22:18.036Z,51.13
2023-05-18T07:24:47.160Z,50.02
2023-05-18T07:27:16.027Z,49.65
2023-05-18T07:29:45.257Z,48.27
2023-05-18T07:32:14.035Z,49.63
2023-05-18T07:34:46.757Z,48.45
2023-05-18T07:37:16.013Z,48.48
2023-05-18T07:39:45.142Z,48.73
2023-05-18T07:42:14.015Z,48.55
2023-05-18T07:44:44.020Z,48.29
2023-05-18T07:47:13.028Z,48.79
2023-05-18T07:49:43.140Z,48.77
2023-05-18T07:52:13.541Z,49.46
2023-05-18T07:54:42.640Z,48.09
2023-05-18T07:57:11.456Z,48.09
2023-05-18T07:59:40.763Z,48.17
2023-05-18T08:02:09.929Z,47.38
2023-05-18T08:04:39.219Z,47.14
2023-05-18T08:07:09.054Z,46.11
2023-05-18T08:09:39.772Z,46.76
2023-05-18T08:12:08.979Z,47.21
2023-05-18T08:14:38.055Z,47.10
2023-05-18T08:17:07.640Z,45.08
2023-05-18T08:19:37.710Z,46.42
2023-05-18T08:22:07.688Z,46.17
2023-05-18T08:24:36.859Z,45.93
2023-05-18T08:27:08.497Z,44.73
2023-05-18T08:29:37.766Z,43.75
2023-05-18T08:32:07.495Z,45.12
2023-05-18T08:34:36.837Z,45.91
2023-05-18T08:37:05.850Z,47.54
2023-05-18T08:39:36.845Z,45.24
2023-05-18T08:42:13.003Z,47.15
2023-05-18T08:44:47.331Z,45.86
2023-05-18T08:47:16.696Z,44.60
2023-05-18T08:49:46.042Z,44.20
2023-05-18T08:52:19.096Z,45.19
2023-05-18T08:54:49.267Z,45.77
2023-05-18T08:57:21.968Z,45.74
2023-05-18T08:59:53.446Z,47.03
2023-05-18T09:02:22.607Z,46.57
2023-05-18T09:04:52.087Z,44.57
2023-05-18T09:07:21.965Z,44.50
2023-05-18T09:09:51.081Z,43.25
2023-05-18T09:12:24.616Z,45.23
2023-05-18T09:14:54.450Z,42.93
2023-05-18T09:17:24.069Z,43.21
2023-05-18T09:19:53.431Z,43.14
2023-05-18T09:22:22.764Z,43.97
2023-05-18T09:24:51.945Z,44.30
2023-05-18T09:27:22.744Z,43.40
2023-05-18T09:29:55.868Z,43.04
2023-05-18T09:32:25.379Z,43.21
2023-05-18T09:34:55.865Z,43.16
2023-05-18T09:37:24.876Z,43.02
2023-05-18T09:39:59.667Z,43.52
2023-05-18T09:42:33.535Z,42.16
2023-05-18T09:45:02.794Z,41.87
2023-05-18T09:47:31.680Z,42.87
2023-05-18T09:50:00.864Z,43.20
2023-05-18T09:52:29.698Z,44.42
2023-05-18T09:55:01.648Z,44.60
2023-05-18T09:57:32.689Z,43.84
2023-05-18T10:00:07.110Z,42.31
2023-05-18T10:02:38.969Z,43.02
2023-05-18T10:05:20.287Z,43.82
2023-05-18T10:07:49.757Z,43.76
2023-05-18T10:10:19.929Z,41.67
2023-05-18T10:12:51.532Z,43.47
2023-05-18T10:15:21.801Z,42.95
2023-05-18T10:17:51.986Z,42.67
2023-05-18T10:20:24.174Z,40.96
2023-05-18T10:22:53.447Z,41.35
2023-05-18T10:25:23.217Z,41.83
2023-05-18T10:27:58.094Z,41.99
2023-05-18T10:30:27.866Z,40.91
2023-05-18T10:32:58.327Z,41.42
2023-05-18T10:35:28.518Z,42.14
2023-05-18T10:37:58.801Z,40.99
2023-05-18T10:40:29.608Z,41.25
2023-05-18T10:43:00.933Z,41.62
2023-05-18T10:45:30.344Z,41.86
2023-05-18T10:48:01.153Z,41.45
2023-05-18T10:50:32.782Z,40.29
2023-05-18T10:53:02.354Z,41.77
2023-05-18T10:55:31.704Z,42.29
2023-05-18T10:58:05.108Z,41.50
2023-05-18T11:00:35.847Z,41.76
2023-05-18T11:03:05.718Z,41.58
2023-05-18T11:05:34.951Z,41.07
2023-05-18T11:08:05.800Z,40.58
2023-05-18T11:10:36.173Z,40.64
2023-05-18T11:13:07.316Z,40.72
2023-05-18T11:15:55.218Z,41.66
2023-05-18T11:18:28.264Z,41.86
2023-05-18T11:20:57.437Z,41.00
2023-05-18T11:23:26.243Z,41.31
2023-05-18T11:25:55.529Z,39.88
2023-05-18T11:28:25.751Z,40.64
2023-05-18T11:30:55.095Z,41.84
2023-05-18T11:33:25.279Z,41.21
2023-05-18T11:36:05.065Z,40.53
2023-05-18T11:38:48.141Z,40.47
2023-05-18T11:41:39.407Z,39.82
2023-05-18T11:44:19.708Z,40.04
2023-05-18T11:46:53.218Z,40.01
2023-05-18T11:49:23.584Z,40.50
2023-05-18T11:51:58.566Z,39.36
2023-05-18T11:54:28.350Z,40.16
2023-05-18T11:56:57.536Z,40.64
2023-05-18T11:59:34.889Z,40.34
2023-05-18T12:02:04.521Z,40.16
2023-05-18T12:04:34.285Z,39.87
2023-05-18T12:07:06.695Z,40.25
2023-05-18T12:09:35.637Z,39.22
2023-05-18T12:12:05.385Z,39.86
2023-05-18T12:14:36.125Z,40.67
2023-05-18T12:17:06.051Z,40.01
2023-05-18T12:19:39.332Z,39.64
2023-05-18T12:22:09.492Z,39.51
2023-05-18T12:24:39.714Z,39.94
2023-05-18T12:27:10.309Z,39.91
2023-05-18T12:29:41.297Z,40.16
2023-05-18T12:32:11.504Z,40.32
2023-05-18T12:34:40.839Z,39.88
2023-05-18T12:37:09.885Z,40.24
2023-05-18T12:39:38.810Z,40.42
2023-05-18T12:42:11.859Z,39.22
2023-05-18T12:44:43.899Z,39.54
2023-05-18T12:47:13.531Z,38.67
2023-05-18T12:49:50.448Z,38.52
2023-05-18T12:52:22.428Z,39.03
2023-05-18T12:55:00.127Z,37.89
2023-05-18T12:57:31.118Z,39.55
2023-05-18T13:00:01.990Z,39.03
2023-05-18T13:02:33.684Z,39.48
2023-05-18T13:05:03.525Z,39.63
2023-05-18T13:07:34.468Z,38.16
2023-05-18T13:10:04.111Z,37.38
2023-05-18T13:12:36.968Z,37.61
2023-05-18T13:15:12.023Z,38.25
2023-05-18T13:17:48.988Z,38.20
2023-05-18T13:20:18.140Z,38.03
2023-05-18T13:22:47.504Z,39.62
2023-05-18T13:25:16.333Z,39.43
2023-05-18T13:27:46.047Z,38.22
2023-05-18T13:30:17.985Z,37.93
2023-05-18T13:32:47.435Z,38.13
2023-05-18T13:35:18.515Z,37.88
2023-05-18T13:37:48.846Z,38.27
2023-05-18T13:40:17.844Z,39.19
2023-05-18T13:42:48.454Z,37.96
2023-05-18T13:45:18.788Z,38.88
2023-05-18T13:47:50.841Z,38.64
2023-05-18T13:50:23.029Z,39.57
2023-05-18T13:52:52.322Z,39.13
2023-05-18T13:55:22.200Z,38.39
2023-05-18T13:57:51.450Z,37.11
2023-05-18T14:00:22.015Z,38.28
2023-05-18T14:02:51.391Z,36.57
2023-05-18T14:05:20.397Z,37.68
2023-05-18T14:07:50.297Z,35.71
2023-05-18T14:10:19.274Z,38.76
2023-05-18T14:12:48.910Z,36.50
2023-05-18T14:15:17.823Z,35.42
2023-05-18T14:17:48.355Z,35.00
2023-05-18T14:20:17.352Z,35.44
2023-05-18T14:22:46.442Z,35.93
2023-05-18T14:25:15.409Z,33.56
2023-05-18T14:27:44.544Z,33.51
2023-05-18T14:30:13.562Z,31.26
2023-05-18T14:32:43.788Z,33.78
2023-05-18T14:35:14.068Z,34.65
2023-05-18T14:37:43.337Z,34.92
2023-05-18T14:40:12.388Z,31.65
2023-05-18T14:42:41.658Z,33.11
2023-05-18T14:45:11.474Z,29.51
2023-05-18T14:47:40.953Z,30.55
2023-05-18T14:50:10.493Z,34.71
2023-05-18T14:52:41.391Z,30.05
2023-05-18T14:55:11.038Z,31.38
2023-05-18T14:57:44.309Z,30.05
2023-05-18T15:00:13.800Z,30.42
2023-05-18T15:02:43.421Z,30.21
2023-05-18T15:05:12.385Z,28.20
2023-05-18T15:07:42.918Z,31.80
2023-05-18T15:10:11.957Z,30.33
2023-05-18T15:12:41.067Z,30.83
2023-05-18T15:15:10.726Z,29.42
2023-05-18T15:17:39.871Z,31.78
2023-05-18T15:20:09.498Z,29.45
2023-05-18T15:22:40.398Z,29.45
2023-05-18T15:25:11.190Z,30.29
2023-05-18T15:27:40.398Z,27.77
2023-05-18T15:30:11.800Z,26.00
2023-05-18T15:32:42.602Z,25.92
2023-05-18T15:35:11.984Z,28.67
2023-05-18T15:37:41.397Z,29.60
2023-05-18T15:40:13.608Z,27.85
2023-05-18T15:42:42.966Z,26.74
2023-05-18T15:45:12.438Z,28.28
2023-05-18T15:47:42.385Z,25.83
2023-05-18T15:50:13.296Z,28.78
2023-05-18T15:52:42.740Z,27.68
2023-05-18T15:55:13.635Z,25.26
2023-05-18T15:57:43.418Z,26.08
2023-05-18T16:00:14.711Z,24.58
2023-05-18T16:02:44.063Z,26.70
2023-05-18T16:05:13.268Z,27.13
2023-05-18T16:07:42.620Z,27.35
2023-05-18T16:10:11.712Z,25.57
2023-05-18T16:12:42.478Z,27.81
2023-05-18T16:15:11.663Z,26.99
2023-05-18T16:17:40.767Z,27.89
2023-05-18T16:20:10.235Z,27.19
2023-05-18T16:22:39.367Z,24.94
2023-05-18T16:25:08.742Z,26.08
2023-05-18T16:27:37.871Z,26.66
2023-05-18T16:30:09.589Z,25.93
2023-05-18T16:32:40.074Z,24.58
2023-05-18T16:35:09.200Z,25.32
2023-05-18T16:37:38.633Z,24.87
2023-05-18T16:40:08.244Z,25.85
2023-05-18T16:42:37.775Z,27.16
2023-05-18T16:45:08.375Z,25.07
2023-05-18T16:47:37.796Z,27.72
2023-05-18T16:50:07.202Z,26.57
2023-05-18T16:52:36.414Z,25.63
2023-05-18T16:55:06.838Z,26.14
2023-05-18T16:57:37.488Z,28.21
2023-05-18T17:00:09.973Z,28.06
2023-05-18T17:02:40.551Z,28.06
2023-05-18T17:05:11.178Z,27.70
2023-05-18T17:07:40.650Z,29.12
2023-05-18T17:10:10.052Z,29.09
2023-05-18T17:12:39.813Z,28.60
2023-05-18T17:15:12.945Z,29.29
2023-05-18T17:17:42.425Z,30.25
2023-05-18T17:20:11.981Z,30.18
2023-05-18T17:22:41.179Z,30.60
2023-05-18T17:25:10.298Z,30.61
2023-05-18T17:27:39.579Z,30.76
2023-05-18T17:30:09.001Z,30.90
2023-05-18T17:32:39.846Z,31.30
2023-05-18T17:35:13.240Z,31.31
2023-05-18T17:37:43.530Z,31.54
2023-05-18T17:40:12.904Z,31.71
2023-05-18T17:42:42.172Z,32.25
2023-05-18T17:45:11.611Z,32.45
2023-05-18T17:47:42.693Z,32.94
2023-05-18T17:50:13.572Z,32.91
2023-05-18T17:52:42.849Z,33.47
2023-05-18T17:55:12.098Z,33.47
2023-05-18T17:57:46.127Z,33.37
2023-05-18T18:00:15.616Z,33.30
2023-05-18T18:02:46.166Z,33.36
2023-05-18T18:05:15.116Z,33.85
2023-05-18T18:07:44.388Z,33.80
2023-05-18T18:10:13.406Z,34.18
2023-05-18T18:12:42.791Z,34.37
2023-05-18T18:15:12.351Z,34.23
2023-05-18T18:17:41.504Z,34.16
2023-05-18T18:20:13.875Z,34.87
2023-05-18T18:22:43.077Z,34.84
2023-05-18T18:25:11.865Z,34.49
2023-05-18T18:27:41.204Z,34.71
2023-05-18T18:30:10.778Z,35.08
2023-05-18T18:32:40.209Z,34.56
2023-05-18T18:35:09.476Z,34.51
2023-05-18T18:37:40.159Z,34.68
2023-05-18T18:40:11.450Z,35.18
2023-05-18T18:42:40.801Z,35.03
2023-05-18T18:45:12.309Z,34.95
2023-05-18T18:47:41.692Z,35.11
2023-05-18T18:50:11.411Z,34.90
2023-05-18T18:52:42.228Z,34.92
2023-05-18T18:55:11.214Z,35.20
2023-05-18T18:57:40.612Z,35.33
2023-05-18T19:00:11.206Z,35.55
2023-05-18T19:02:40.742Z,35.87
2023-05-18T19:05:11.497Z,35.89
2023-05-18T19:07:42.234Z,36.23
2023-05-18T19:10:11.463Z,36.03
2023-05-18T19:12:40.600Z,36.36
2023-05-18T19:15:10.169Z,36.59
2023-05-18T19:17:39.335Z,36.33
2023-05-18T19:20:09.120Z,36.66
2023-05-18T19:22:38.839Z,36.70
2023-05-18T19:25:09.719Z,36.57
2023-05-18T19:27:39.097Z,36.48
2023-05-18T19:30:08.526Z,36.39
2023-05-18T19:32:37.907Z,37.11
2023-05-18T19:35:07.090Z,37.14
2023-05-18T19:37:36.486Z,37.43
2023-05-18T19:40:05.765Z,37.59
2023-05-18T19:42:37.216Z,37.70
2023-05-18T19:45:06.535Z,37.69
2023-05-18T19:47:35.825Z,38.16
2023-05-18T19:50:04.995Z,38.00
2023-05-18T19:52:34.258Z,38.61
2023-05-18T19:55:03.190Z,38.33
2023-05-18T19:57:33.173Z,38.40
2023-05-18T20:00:05.852Z,38.77
2023-05-18T20:02:41.398Z,38.63
2023-05-18T20:05:12.621Z,38.55
2023-05-18T20:07:42.156Z,38.76
2023-05-18T20:10:11.219Z,39.07
2023-05-18T20:12:40.720Z,39.90
2023-05-18T20:15:11.374Z,39.89
2023-05-18T20:17:40.765Z,40.00
2023-05-18T20:20:10.083Z,40.14
2023-05-18T20:22:40.909Z,39.99
2023-05-18T20:25:09.947Z,40.19
2023-05-18T20:27:39.185Z,40.44
2023-05-18T20:30:09.331Z,41.14
2023-05-18T20:32:40.036Z,40.58
2023-05-18T20:35:09.057Z,40.73
2023-05-18T20:37:41.530Z,40.48
2023-05-18T20:40:10.933Z,40.56
2023-05-18T20:42:40.616Z,41.24
2023-05-18T20:45:10.105Z,41.20
2023-05-18T20:47:41.931Z,41.67
2023-05-18T20:50:11.172Z,42.09
2023-05-18T20:52:40.296Z,41.08
2023-05-18T20:55:10.344Z,41.36
2023-05-18T20:57:40.113Z,42.53
2023-05-18T21:00:10.361Z,41.33
2023-05-18T21:02:41.629Z,41.11
2023-05-18T21:05:10.860Z,40.97
2023-05-18T21:07:40.439Z,41.30
2023-05-18T21:10:09.796Z,42.06
2023-05-18T21:12:39.151Z,41.45
2023-05-18T21:15:08.745Z,41.40
2023-05-18T21:17:38.011Z,42.66
2023-05-18T21:20:09.993Z,43.69
2023-05-18T21:22:39.389Z,43.18
2023-05-18T21:25:08.568Z,42.30
2023-05-18T21:27:38.338Z,42.75
2023-05-18T21:30:07.811Z,42.57
2023-05-18T21:32:37.444Z,42.82
2023-05-18T21:35:08.557Z,42.65
2023-05-18T21:37:38.073Z,42.71
2023-05-18T21:40:07.657Z,42.68
2023-05-18T21:42:38.219Z,42.69
2023-05-18T21:45:07.686Z,42.89
2023-05-18T21:47:36.894Z,43.30
2023-05-18T21:50:05.984Z,43.50
2023-05-18T21:52:36.482Z,45.51
2023-05-18T21:55:05.831Z,45.18
2023-05-18T21:57:35.697Z,43.84
2023-05-18T22:00:06.503Z,44.65
2023-05-18T22:02:41.821Z,44.08
2023-05-18T22:05:11.255Z,44.63
2023-05-18T22:07:41.765Z,44.39
2023-05-18T22:10:11.464Z,46.17
2023-05-18T22:12:43.382Z,46.05
2023-05-18T22:15:12.609Z,47.73
2023-05-18T22:17:41.738Z,49.72
2023-05-18T22:20:11.509Z,47.14
2023-05-18T22:22:42.641Z,44.87
2023-05-18T22:25:11.488Z,44.44
2023-05-18T22:27:40.808Z,47.75
2023-05-18T22:30:10.181Z,47.41
2023-05-18T22:32:39.542Z,44.69
2023-05-18T22:35:09.305Z,46.05
2023-05-18T22:37:38.689Z,46.13
2023-05-18T22:40:09.969Z,47.35
2023-05-18T22:42:39.264Z,45.27
2023-05-18T22:45:08.743Z,47.06
2023-05-18T22:47:39.093Z,47.00
2023-05-18T22:50:09.103Z,46.27
2023-05-18T22:52:38.703Z,47.69
2023-05-18T22:55:13.963Z,45.72
2023-05-18T22:57:43.693Z,49.65
2023-05-18T23:00:14.249Z,46.45
2023-05-18T23:02:43.915Z,50.18
2023-05-18T23:05:13.403Z,49.34
2023-05-18T23:07:43.093Z,47.46
2023-05-18T23:10:13.965Z,47.32
2023-05-18T23:12:45.645Z,46.39
2023-05-18T23:15:15.477Z,46.31
2023-05-18T23:17:46.307Z,46.36
2023-05-18T23:20:15.409Z,45.83
2023-05-18T23:22:44.672Z,47.04
2023-05-18T23:25:14.884Z,46.60
2023-05-18T23:27:45.068Z,47.53
2023-05-18T23:30:14.133Z,49.14
2023-05-18T23:32:43.599Z,47.37
2023-05-18T23:35:14.025Z,50.13
2023-05-18T23:37:43.449Z,47.81
2023-05-18T23:40:13.839Z,51.36
2023-05-18T23:42:44.745Z,50.84
2023-05-18T23:45:14.288Z,47.93
2023-05-18T23:47:43.846Z,48.39
2023-05-18T23:50:13.598Z,49.01
2023-05-18T23:52:44.290Z,49.12
2023-05-18T23:55:13.516Z,48.31
2023-05-18T23:57:44.677Z,47.43
